createdAt,value
2022-09-03T00:00:03.980Z,74.0
2022-09-03T00:01:02.496Z,72.7
2022-09-03T00:02:05.478Z,72.7
2022-09-03T00:03:04.925Z,72.9
2022-09-03T00:04:04.385Z,72.9
2022-09-03T00:05:01.144Z,73.4
2022-09-03T00:06:10.093Z,73.4
2022-09-03T00:07:01.856Z,72.3
2022-09-03T00:08:05.545Z,72.3
2022-09-03T00:09:04.687Z,72.5
2022-09-03T00:10:03.446Z,72.5
2022-09-03T00:11:03.401Z,73.6
2022-09-03T00:12:08.808Z,73.6
2022-09-03T00:13:02.684Z,73.9
2022-09-03T00:14:04.626Z,73.9
2022-09-03T00:15:03.520Z,74.7
2022-09-03T00:16:02.117Z,74.7
2022-09-03T00:17:03.224Z,74.4
2022-09-03T00:18:03.325Z,74.4
2022-09-03T00:19:02.204Z,76.0
2022-09-03T00:20:10.102Z,76.0
2022-09-03T00:21:02.367Z,76.4
2022-09-03T00:22:09.101Z,76.4
2022-09-03T00:23:02.408Z,75.7
2022-09-03T00:24:02.201Z,75.7
2022-09-03T00:25:02.918Z,76.1
2022-09-03T00:26:10.088Z,76.1
2022-09-03T00:27:02.177Z,76.0
2022-09-03T00:28:01.427Z,76.0
2022-09-03T00:29:00.139Z,75.4
2022-09-03T00:30:01.416Z,75.4
2022-09-03T00:31:10.155Z,76.5
2022-09-03T00:32:05.094Z,76.5
2022-09-03T00:33:04.114Z,76.3
2022-09-03T00:34:03.367Z,76.3
2022-09-03T00:35:02.114Z,76.6
2022-09-03T00:36:01.145Z,76.6
2022-09-03T00:37:00.248Z,76.8
2022-09-03T00:38:00.270Z,76.8
2022-09-03T00:39:00.165Z,77.1
2022-09-03T00:40:00.350Z,77.1
2022-09-03T00:41:03.394Z,76.8
2022-09-03T00:42:10.088Z,76.8
2022-09-03T00:43:07.025Z,77.4
2022-09-03T00:44:10.091Z,77.4
2022-09-03T00:45:07.452Z,77.0
2022-09-03T00:46:10.153Z,77.0
2022-09-03T00:47:06.034Z,77.4
2022-09-03T00:48:01.149Z,77.4
2022-09-03T00:49:00.133Z,77.5
2022-09-03T00:50:10.097Z,77.5
2022-09-03T00:51:00.132Z,76.8
2022-09-03T00:52:00.135Z,76.8
2022-09-03T00:53:10.086Z,77.8
2022-09-03T00:54:10.095Z,77.8
2022-09-03T00:55:10.094Z,77.1
2022-09-03T00:56:07.668Z,77.1
2022-09-03T00:57:10.088Z,78.2
2022-09-03T00:58:10.163Z,78.2
2022-09-03T00:59:10.093Z,79.5
2022-09-03T01:00:00.148Z,79.5
2022-09-03T01:01:05.740Z,79.2
2022-09-03T01:02:00.328Z,79.2
2022-09-03T01:03:09.618Z,78.0
2022-09-03T01:04:00.177Z,78.0
2022-09-03T01:05:10.129Z,77.6
2022-09-03T01:06:10.115Z,77.6
2022-09-03T01:07:07.989Z,79.3
2022-09-03T01:08:10.163Z,79.3
2022-09-03T01:09:06.528Z,78.1
2022-09-03T01:10:00.156Z,78.1
2022-09-03T01:11:07.474Z,79.8
2022-09-03T01:12:07.278Z,79.8
2022-09-03T01:13:06.809Z,78.6
2022-09-03T01:14:07.471Z,78.6
2022-09-03T01:15:00.167Z,80.2
2022-09-03T01:16:10.208Z,80.2
2022-09-03T01:17:10.094Z,82.2
2022-09-03T01:18:07.710Z,82.2
2022-09-03T01:19:03.417Z,80.8
2022-09-03T01:20:07.651Z,80.8
2022-09-03T01:21:10.097Z,80.2
2022-09-03T01:22:10.111Z,80.2
2022-09-03T01:23:00.154Z,80.8
2022-09-03T01:24:10.105Z,80.8
2022-09-03T01:25:10.143Z,81.2
2022-09-03T01:26:10.110Z,81.2
2022-09-03T01:27:08.373Z,81.9
2022-09-03T01:28:09.944Z,81.9
2022-09-03T01:29:09.051Z,81.3
2022-09-03T01:30:03.126Z,81.3
2022-09-03T01:31:01.246Z,81.8
2022-09-03T01:32:05.003Z,81.8
2022-09-03T01:33:01.171Z,82.5
2022-09-03T01:34:00.169Z,82.5
2022-09-03T01:35:10.164Z,81.1
2022-09-03T01:36:07.649Z,81.1
2022-09-03T01:37:09.208Z,81.6
2022-09-03T01:38:00.136Z,81.6
2022-09-03T01:39:02.584Z,80.9
2022-09-03T01:40:10.123Z,80.9
2022-09-03T01:41:10.095Z,80.8
2022-09-03T01:42:10.094Z,80.8
2022-09-03T01:43:00.136Z,80.3
2022-09-03T01:44:10.099Z,80.3
2022-09-03T01:45:10.113Z,80.9
2022-09-03T01:46:00.416Z,80.9
2022-09-03T01:47:08.974Z,81.6
2022-09-03T01:48:07.275Z,81.6
2022-09-03T01:49:05.190Z,83.9
2022-09-03T01:50:10.128Z,83.9
2022-09-03T01:51:01.145Z,82.5
2022-09-03T01:52:04.457Z,82.5
2022-09-03T01:53:07.571Z,82.0
2022-09-03T01:54:10.884Z,82.0
2022-09-03T01:55:01.144Z,81.0
2022-09-03T01:56:00.134Z,81.0
2022-09-03T01:57:17.243Z,81.5
2022-09-03T01:58:00.134Z,81.5
2022-09-03T01:59:04.516Z,81.7
2022-09-03T02:00:10.141Z,81.7
2022-09-03T02:01:04.054Z,83.0
2022-09-03T02:02:03.486Z,83.0
2022-09-03T02:03:02.823Z,83.2
2022-09-03T02:04:00.715Z,83.2
2022-09-03T02:05:00.155Z,83.0
2022-09-03T02:06:00.396Z,83.0
2022-09-03T02:07:00.543Z,83.5
2022-09-03T02:08:01.756Z,83.5
2022-09-03T02:09:00.158Z,83.9
2022-09-03T02:10:00.789Z,83.9
2022-09-03T02:11:00.435Z,84.9
2022-09-03T02:12:05.414Z,84.9
2022-09-03T02:13:03.867Z,83.5
2022-09-03T02:14:00.175Z,83.5
2022-09-03T02:15:01.998Z,83.9
2022-09-03T02:16:05.607Z,83.9
2022-09-03T02:17:00.820Z,84.4
2022-09-03T02:18:02.464Z,84.4
2022-09-03T02:19:01.906Z,83.2
2022-09-03T02:20:03.302Z,83.2
2022-09-03T02:21:00.169Z,84.7
2022-09-03T02:22:00.163Z,84.7
2022-09-03T02:23:01.361Z,84.1
2022-09-03T02:24:01.870Z,84.1
2022-09-03T02:25:00.321Z,83.4
2022-09-03T02:26:01.179Z,83.4
2022-09-03T02:27:00.206Z,82.4
2022-09-03T02:28:00.650Z,82.4
2022-09-03T02:29:00.901Z,84.6
2022-09-03T02:30:00.189Z,84.6
2022-09-03T02:31:00.421Z,84.7
2022-09-03T02:32:00.253Z,84.7
2022-09-03T02:33:00.476Z,84.0
2022-09-03T02:34:00.374Z,84.0
2022-09-03T02:35:00.161Z,84.8
2022-09-03T02:36:00.695Z,84.8
2022-09-03T02:37:10.089Z,84.6
2022-09-03T02:38:10.088Z,84.6
2022-09-03T02:39:00.287Z,83.9
2022-09-03T02:40:00.405Z,83.9
2022-09-03T02:41:00.198Z,84.0
2022-09-03T02:42:00.406Z,84.0
2022-09-03T02:43:01.249Z,85.3
2022-09-03T02:44:10.095Z,85.3
2022-09-03T02:45:06.367Z,86.2
2022-09-03T02:46:02.980Z,86.2
2022-09-03T02:47:01.852Z,85.7
2022-09-03T02:48:00.206Z,85.7
2022-09-03T02:49:00.165Z,85.5
2022-09-03T02:50:00.181Z,85.5
2022-09-03T02:51:00.219Z,86.2
2022-09-03T02:52:03.668Z,86.2
2022-09-03T02:53:00.164Z,86.0
2022-09-03T02:54:00.173Z,86.0
2022-09-03T02:55:00.151Z,85.8
2022-09-03T02:56:00.693Z,85.8
2022-09-03T02:57:00.683Z,87.4
2022-09-03T02:58:00.159Z,87.4
2022-09-03T02:59:00.881Z,85.9
2022-09-03T03:00:00.201Z,85.9
2022-09-03T03:01:00.232Z,87.0
2022-09-03T03:02:01.130Z,87.0
2022-09-03T03:03:00.427Z,87.0
2022-09-03T03:04:00.205Z,87.0
2022-09-03T03:05:00.172Z,86.0
2022-09-03T03:06:01.601Z,86.0
2022-09-03T03:07:00.316Z,85.5
2022-09-03T03:08:00.261Z,85.5
2022-09-03T03:09:00.150Z,86.8
2022-09-03T03:10:00.160Z,86.8
2022-09-03T03:11:00.314Z,85.9
2022-09-03T03:12:00.161Z,85.9
2022-09-03T03:13:00.203Z,85.0
2022-09-03T03:14:00.156Z,85.0
2022-09-03T03:15:00.175Z,85.9
2022-09-03T03:16:02.573Z,85.9
2022-09-03T03:17:00.212Z,86.5
2022-09-03T03:18:00.148Z,86.5
2022-09-03T03:19:00.188Z,86.2
2022-09-03T03:20:00.173Z,86.2
2022-09-03T03:21:08.528Z,87.5
2022-09-03T03:22:00.225Z,87.5
2022-09-03T03:23:01.779Z,85.2
2022-09-03T03:24:00.598Z,85.2
2022-09-03T03:25:00.162Z,86.9
2022-09-03T03:26:01.061Z,86.9
2022-09-03T03:27:00.144Z,87.0
2022-09-03T03:28:00.321Z,87.0
2022-09-03T03:29:00.763Z,86.2
2022-09-03T03:30:00.163Z,86.2
2022-09-03T03:31:08.563Z,86.9
2022-09-03T03:32:00.254Z,86.9
2022-09-03T03:33:00.158Z,86.7
2022-09-03T03:34:02.043Z,86.7
2022-09-03T03:35:00.157Z,89.1
2022-09-03T03:36:09.008Z,89.1
2022-09-03T03:37:00.157Z,89.5
2022-09-03T03:38:00.156Z,89.5
2022-09-03T03:39:00.966Z,89.9
2022-09-03T03:40:00.256Z,89.9
2022-09-03T03:41:05.817Z,88.2
2022-09-03T03:42:00.202Z,88.2
2022-09-03T03:43:00.148Z,89.3
2022-09-03T03:44:01.515Z,89.3
2022-09-03T03:45:00.247Z,88.4
2022-09-03T03:46:00.217Z,88.4
2022-09-03T03:47:01.331Z,89.8
2022-09-03T03:48:00.152Z,89.8
2022-09-03T03:49:00.441Z,88.9
2022-09-03T03:50:00.155Z,88.9
2022-09-03T03:51:01.027Z,89.3
2022-09-03T03:52:00.168Z,89.3
2022-09-03T03:53:00.184Z,86.4
2022-09-03T03:54:04.314Z,86.4
2022-09-03T03:55:00.212Z,87.2
2022-09-03T03:56:01.701Z,87.2
2022-09-03T03:57:00.146Z,87.7
2022-09-03T03:58:00.142Z,87.7
2022-09-03T03:59:00.223Z,88.5
2022-09-03T04:00:00.291Z,88.5
2022-09-03T04:01:04.587Z,90.0
2022-09-03T04:02:00.241Z,90.0
2022-09-03T04:03:00.174Z,90.6
2022-09-03T04:04:00.380Z,90.6
2022-09-03T04:05:00.142Z,89.7
2022-09-03T04:06:00.526Z,89.7
2022-09-03T04:07:00.161Z,91.9
2022-09-03T04:08:00.619Z,91.9
2022-09-03T04:09:00.207Z,90.8
2022-09-03T04:10:00.213Z,90.8
2022-09-03T04:11:01.016Z,92.4
2022-09-03T04:12:00.350Z,92.4
2022-09-03T04:13:00.148Z,89.6
2022-09-03T04:14:01.336Z,89.6
2022-09-03T04:15:00.154Z,91.3
2022-09-03T04:16:02.288Z,91.3
2022-09-03T04:17:00.609Z,91.6
2022-09-03T04:18:00.150Z,91.6
2022-09-03T04:19:00.153Z,92.2
2022-09-03T04:20:00.200Z,92.2
2022-09-03T04:21:01.477Z,91.8
2022-09-03T04:22:00.155Z,91.8
2022-09-03T04:23:00.550Z,92.2
2022-09-03T04:24:00.158Z,92.2
2022-09-03T04:25:00.147Z,90.1
2022-09-03T04:26:00.318Z,90.1
2022-09-03T04:27:00.147Z,89.7
2022-09-03T04:28:00.242Z,89.7
2022-09-03T04:29:02.784Z,90.8
2022-09-03T04:30:00.163Z,90.8
2022-09-03T04:31:01.277Z,91.5
2022-09-03T04:32:00.207Z,91.5
2022-09-03T04:33:00.152Z,91.0
2022-09-03T04:34:00.470Z,91.0
2022-09-03T04:35:00.165Z,88.7
2022-09-03T04:36:01.554Z,88.7
2022-09-03T04:37:00.168Z,91.0
2022-09-03T04:38:00.141Z,91.0
2022-09-03T04:39:00.223Z,92.6
2022-09-03T04:40:00.323Z,92.6
2022-09-03T04:41:00.231Z,92.8
2022-09-03T04:42:00.262Z,92.8
2022-09-03T04:43:00.173Z,91.5
2022-09-03T04:44:00.206Z,91.5
2022-09-03T04:45:00.163Z,94.2
2022-09-03T04:46:01.675Z,94.2
2022-09-03T04:47:00.148Z,92.6
2022-09-03T04:48:01.227Z,92.6
2022-09-03T04:49:00.414Z,91.6
2022-09-03T04:50:00.159Z,91.6
2022-09-03T04:51:00.952Z,90.6
2022-09-03T04:52:00.508Z,90.6
2022-09-03T04:53:04.534Z,89.6
2022-09-03T04:54:00.814Z,89.6
2022-09-03T04:55:00.151Z,92.0
2022-09-03T04:56:01.663Z,92.0
2022-09-03T04:57:00.148Z,91.4
2022-09-03T04:58:00.152Z,91.4
2022-09-03T04:59:02.881Z,91.7
2022-09-03T05:00:00.151Z,91.7
2022-09-03T05:01:06.280Z,93.5
2022-09-03T05:02:00.272Z,93.5
2022-09-03T05:03:00.161Z,92.7
2022-09-03T05:04:00.464Z,92.7
2022-09-03T05:05:00.205Z,93.0
2022-09-03T05:06:00.162Z,93.0
2022-09-03T05:07:00.153Z,93.8
2022-09-03T05:08:00.568Z,93.8
2022-09-03T05:09:00.425Z,94.7
2022-09-03T05:10:00.177Z,94.7
2022-09-03T05:11:00.334Z,94.0
2022-09-03T05:12:00.209Z,94.0
2022-09-03T05:13:01.149Z,96.2
2022-09-03T05:14:00.154Z,96.2
2022-09-03T05:15:00.444Z,94.3
2022-09-03T05:16:00.936Z,94.3
2022-09-03T05:17:00.232Z,93.1
2022-09-03T05:18:00.857Z,93.1
2022-09-03T05:19:00.162Z,95.3
2022-09-03T05:20:00.182Z,95.3
2022-09-03T05:21:00.917Z,92.3
2022-09-03T05:22:00.149Z,92.3
2022-09-03T05:23:01.171Z,95.1
2022-09-03T05:24:00.372Z,95.1
2022-09-03T05:25:00.145Z,94.9
2022-09-03T05:26:01.424Z,94.9
2022-09-03T05:27:00.146Z,94.3
2022-09-03T05:28:00.245Z,94.3
2022-09-03T05:29:02.490Z,94.1
2022-09-03T05:30:00.178Z,94.1
2022-09-03T05:31:01.202Z,93.9
2022-09-03T05:32:00.328Z,93.9
2022-09-03T05:33:00.147Z,96.7
2022-09-03T05:34:02.195Z,96.7
2022-09-03T05:37:00.359Z,96.3
2022-09-03T05:38:00.733Z,96.3
2022-09-03T05:39:00.352Z,96.6
2022-09-03T05:40:00.274Z,96.6
2022-09-03T05:41:01.253Z,95.1
2022-09-03T05:42:00.154Z,95.1
2022-09-03T05:43:00.151Z,96.3
2022-09-03T05:44:00.577Z,96.3
2022-09-03T05:45:00.162Z,95.2
2022-09-03T05:46:01.429Z,95.2
2022-09-03T05:47:00.151Z,97.2
2022-09-03T05:48:00.204Z,97.2
2022-09-03T05:49:01.834Z,95.3
2022-09-03T05:50:00.161Z,95.3
2022-09-03T05:51:00.340Z,96.5
2022-09-03T05:52:00.224Z,96.5
2022-09-03T05:53:00.151Z,96.0
2022-09-03T05:54:00.170Z,96.0
2022-09-03T05:55:00.167Z,95.3
2022-09-03T05:56:01.511Z,95.3
2022-09-03T05:57:00.224Z,96.2
2022-09-03T05:58:00.160Z,96.2
2022-09-03T05:59:01.207Z,96.5
2022-09-03T06:00:00.208Z,96.5
2022-09-03T06:01:08.647Z,95.9
2022-09-03T06:02:00.672Z,95.9
2022-09-03T06:03:00.322Z,96.4
2022-09-03T06:04:01.348Z,96.4
2022-09-03T06:05:00.179Z,96.0
2022-09-03T06:06:00.150Z,96.0
2022-09-03T06:07:00.225Z,95.2
2022-09-03T06:08:00.235Z,95.2
2022-09-03T06:09:01.551Z,95.2
2022-09-03T06:10:00.163Z,95.2
2022-09-03T06:11:00.957Z,95.9
2022-09-03T06:12:00.221Z,95.9
2022-09-03T06:13:00.150Z,94.1
2022-09-03T06:14:00.927Z,94.1
2022-09-03T06:15:00.159Z,92.9
2022-09-03T06:16:01.090Z,92.9
2022-09-03T06:17:00.212Z,93.4
2022-09-03T06:18:00.148Z,93.4
2022-09-03T06:19:00.390Z,93.7
2022-09-03T06:20:00.164Z,93.7
2022-09-03T06:21:01.602Z,93.6
2022-09-03T06:22:00.170Z,93.6
2022-09-03T06:23:00.167Z,93.9
2022-09-03T06:24:00.417Z,93.9
2022-09-03T06:25:00.189Z,94.1
2022-09-03T06:26:04.950Z,94.1
2022-09-03T06:27:00.147Z,93.6
2022-09-03T06:28:00.156Z,93.6
2022-09-03T06:29:00.158Z,93.6
2022-09-03T06:30:00.180Z,93.6
2022-09-03T06:31:00.977Z,95.4
2022-09-03T06:32:00.237Z,95.4
2022-09-03T06:33:00.163Z,94.7
2022-09-03T06:34:04.045Z,94.7
2022-09-03T06:35:00.171Z,93.8
2022-09-03T06:36:03.334Z,93.8
2022-09-03T06:37:00.156Z,93.3
2022-09-03T06:38:00.158Z,93.3
2022-09-03T06:39:00.217Z,94.2
2022-09-03T06:40:00.333Z,94.2
2022-09-03T06:41:01.352Z,91.7
2022-09-03T06:42:00.161Z,91.7
2022-09-03T06:43:00.154Z,92.2
2022-09-03T06:44:01.456Z,92.2
2022-09-03T06:45:00.168Z,92.5
2022-09-03T06:46:02.227Z,92.5
2022-09-03T06:47:00.152Z,91.5
2022-09-03T06:48:00.158Z,91.5
2022-09-03T06:49:00.339Z,92.4
2022-09-03T06:50:00.206Z,92.4
2022-09-03T06:51:01.200Z,91.4
2022-09-03T06:52:00.209Z,91.4
2022-09-03T06:53:00.149Z,91.6
2022-09-03T06:54:02.720Z,91.6
2022-09-03T06:55:00.174Z,91.5
2022-09-03T06:56:01.472Z,91.5
2022-09-03T06:57:00.158Z,91.0
2022-09-03T06:58:00.161Z,91.0
2022-09-03T06:59:03.490Z,89.4
2022-09-03T07:00:00.225Z,89.4
2022-09-03T07:01:00.947Z,89.2
2022-09-03T07:02:00.357Z,89.2
2022-09-03T07:03:00.161Z,89.0
2022-09-03T07:04:01.397Z,89.0
2022-09-03T07:05:00.166Z,89.7
2022-09-03T07:06:00.933Z,89.7
2022-09-03T07:07:00.426Z,89.5
2022-09-03T07:08:00.173Z,89.5
2022-09-03T07:09:00.152Z,89.1
2022-09-03T07:10:00.176Z,89.1
2022-09-03T07:11:02.169Z,87.6
2022-09-03T07:12:00.222Z,87.6
2022-09-03T07:13:00.179Z,87.5
2022-09-03T07:14:00.806Z,87.5
2022-09-03T07:15:00.162Z,86.6
2022-09-03T07:16:02.455Z,86.6
2022-09-03T07:17:00.154Z,86.9
2022-09-03T07:18:00.147Z,86.9
2022-09-03T07:19:00.358Z,86.4
2022-09-03T07:20:00.179Z,86.4
2022-09-03T07:21:01.336Z,86.2
2022-09-03T07:22:00.153Z,86.2
2022-09-03T07:23:00.159Z,84.8
2022-09-03T07:24:00.198Z,84.8
2022-09-03T07:25:00.151Z,85.6
2022-09-03T07:26:01.928Z,85.6
2022-09-03T07:27:00.164Z,85.9
2022-09-03T07:28:00.228Z,85.9
2022-09-03T07:29:00.222Z,86.3
2022-09-03T07:30:00.170Z,86.3
2022-09-03T07:31:01.652Z,85.9
2022-09-03T07:32:00.444Z,85.9
2022-09-03T07:33:00.160Z,84.8
2022-09-03T07:34:01.594Z,84.8
2022-09-03T07:35:00.177Z,85.0
2022-09-03T07:36:05.120Z,85.0
2022-09-03T07:37:00.148Z,84.9
2022-09-03T07:38:00.146Z,84.9
2022-09-03T07:39:00.159Z,85.0
2022-09-03T07:40:00.384Z,85.0
2022-09-03T07:41:01.016Z,85.1
2022-09-03T07:42:00.169Z,85.1
2022-09-03T07:43:00.162Z,84.7
2022-09-03T07:44:00.283Z,84.7
2022-09-03T07:45:00.207Z,84.8
2022-09-03T07:46:00.184Z,84.8
2022-09-03T07:47:00.231Z,84.3
2022-09-03T07:48:00.171Z,84.3
2022-09-03T07:49:00.354Z,83.9
2022-09-03T07:50:00.214Z,83.9
2022-09-03T07:51:00.187Z,83.2
2022-09-03T07:52:00.218Z,83.2
2022-09-03T07:53:00.141Z,81.6
2022-09-03T07:54:01.083Z,81.6
2022-09-03T07:55:00.162Z,81.8
2022-09-03T07:56:01.000Z,81.8
2022-09-03T07:57:00.148Z,81.1
2022-09-03T07:58:00.151Z,81.1
2022-09-03T07:59:00.525Z,82.0
2022-09-03T08:00:00.202Z,82.0
2022-09-03T08:01:09.103Z,80.4
2022-09-03T08:02:00.142Z,80.4
2022-09-03T08:03:00.160Z,80.3
2022-09-03T08:04:01.128Z,80.3
2022-09-03T08:05:00.151Z,80.8
2022-09-03T08:06:02.368Z,80.8
2022-09-03T08:07:00.200Z,79.9
2022-09-03T08:08:00.150Z,79.9
2022-09-03T08:09:04.973Z,80.7
2022-09-03T08:10:00.174Z,80.7
2022-09-03T08:11:10.089Z,79.8
2022-09-03T08:12:00.165Z,79.8
2022-09-03T08:13:00.158Z,78.9
2022-09-03T08:14:01.505Z,78.9
2022-09-03T08:15:00.157Z,78.1
2022-09-03T08:16:00.406Z,78.1
2022-09-03T08:17:00.148Z,79.7
2022-09-03T08:18:03.392Z,79.7
2022-09-03T08:19:00.167Z,78.4
2022-09-03T08:20:00.223Z,78.4
2022-09-03T08:21:00.185Z,78.5
2022-09-03T08:22:00.149Z,78.5
2022-09-03T08:23:01.108Z,78.1
2022-09-03T08:24:00.203Z,78.1
2022-09-03T08:25:00.153Z,76.3
2022-09-03T08:26:00.194Z,76.3
2022-09-03T08:27:00.157Z,76.1
2022-09-03T08:28:00.158Z,76.1
2022-09-03T08:29:00.445Z,75.8
2022-09-03T08:30:00.263Z,75.8
2022-09-03T08:31:10.665Z,75.5
2022-09-03T08:32:00.215Z,75.5
2022-09-03T08:33:00.505Z,74.7
2022-09-03T08:34:00.949Z,74.7
2022-09-03T08:35:00.154Z,76.2
2022-09-03T08:36:00.147Z,76.2
2022-09-03T08:37:00.149Z,74.8
2022-09-03T08:38:00.141Z,74.8
2022-09-03T08:39:01.312Z,74.4
2022-09-03T08:40:00.378Z,74.4
2022-09-03T08:41:02.223Z,74.3
2022-09-03T08:42:08.531Z,74.3
2022-09-03T08:43:07.064Z,73.2
2022-09-03T08:44:10.093Z,73.2
2022-09-03T08:45:01.693Z,71.6
2022-09-03T08:46:00.841Z,71.6
2022-09-03T08:47:01.144Z,72.2
2022-09-03T08:48:04.388Z,72.2
2022-09-03T08:49:00.743Z,72.4
2022-09-03T08:50:03.664Z,72.4
2022-09-03T08:51:01.313Z,71.1
2022-09-03T08:52:02.027Z,71.1
2022-09-03T08:53:10.091Z,71.3
2022-09-03T08:54:00.786Z,71.3
2022-09-03T08:55:08.546Z,71.8
2022-09-03T08:56:06.871Z,71.8
2022-09-03T08:57:01.541Z,71.1
2022-09-03T08:58:10.090Z,71.1
2022-09-03T08:59:00.658Z,71.0
2022-09-03T09:00:00.214Z,71.0
2022-09-03T09:01:05.681Z,70.8
2022-09-03T09:02:10.221Z,70.8
2022-09-03T09:03:06.602Z,70.5
2022-09-03T09:04:10.098Z,70.5
2022-09-03T09:05:13.640Z,71.3
2022-09-03T09:06:10.102Z,71.3
2022-09-03T09:07:10.097Z,69.8
2022-09-03T09:08:10.094Z,69.8
2022-09-03T09:09:00.133Z,70.3
2022-09-03T09:10:00.149Z,70.3
2022-09-03T09:11:10.091Z,69.1
2022-09-03T09:12:09.703Z,69.1
2022-09-03T09:13:10.089Z,69.3
2022-09-03T09:14:02.899Z,69.3
2022-09-03T09:15:10.099Z,68.1
2022-09-03T09:16:07.590Z,68.1
2022-09-03T09:17:07.430Z,66.9
2022-09-03T09:18:10.092Z,66.9
2022-09-03T09:19:10.094Z,67.4
2022-09-03T09:20:10.108Z,67.4
2022-09-03T09:21:09.861Z,66.8
2022-09-03T09:22:02.057Z,66.8
2022-09-03T09:23:02.029Z,68.1
2022-09-03T09:24:03.898Z,68.1
2022-09-03T09:25:02.339Z,67.1
2022-09-03T09:26:05.411Z,67.1
2022-09-03T09:27:03.330Z,65.9
2022-09-03T09:28:00.141Z,65.9
2022-09-03T09:29:03.108Z,66.6
2022-09-03T09:30:03.059Z,66.6
2022-09-03T09:31:01.641Z,66.1
2022-09-03T09:32:00.403Z,66.1
2022-09-03T09:33:00.154Z,64.8
2022-09-03T09:34:03.244Z,64.8
2022-09-03T09:35:00.160Z,63.6
2022-09-03T09:36:03.707Z,63.6
2022-09-03T09:37:02.142Z,64.4
2022-09-03T09:38:00.160Z,64.4
2022-09-03T09:39:08.332Z,64.4
2022-09-03T09:40:00.270Z,64.4
2022-09-03T09:41:10.091Z,63.6
2022-09-03T09:42:01.482Z,63.6
2022-09-03T09:43:09.551Z,63.1
2022-09-03T09:44:01.017Z,63.1
2022-09-03T09:45:07.850Z,63.9
2022-09-03T09:46:05.623Z,63.9
2022-09-03T09:47:02.903Z,63.5
2022-09-03T09:48:01.501Z,63.5
2022-09-03T09:49:00.157Z,63.0
2022-09-03T09:50:01.209Z,63.0
2022-09-03T09:51:04.203Z,62.9
2022-09-03T09:52:09.329Z,62.9
2022-09-03T09:53:00.964Z,63.3
2022-09-03T09:54:02.907Z,63.3
2022-09-03T09:55:08.799Z,62.4
2022-09-03T09:56:00.232Z,62.4
2022-09-03T09:57:02.022Z,63.1
2022-09-03T09:58:10.915Z,63.1
2022-09-03T09:59:02.275Z,62.9
2022-09-03T10:00:03.841Z,62.9
2022-09-03T10:01:00.340Z,62.6
2022-09-03T10:02:07.340Z,62.6
2022-09-03T10:03:00.285Z,62.0
2022-09-03T10:04:07.911Z,62.0
2022-09-03T10:05:10.100Z,61.4
2022-09-03T10:06:01.939Z,61.4
2022-09-03T10:07:05.225Z,60.7
2022-09-03T10:08:01.802Z,60.7
2022-09-03T10:09:09.387Z,61.7
2022-09-03T10:10:05.180Z,61.7
2022-09-03T10:11:00.195Z,61.2
2022-09-03T10:12:05.173Z,61.2
2022-09-03T10:13:05.639Z,61.1
2022-09-03T10:14:00.749Z,61.1
2022-09-03T10:15:10.094Z,61.3
2022-09-03T10:16:02.223Z,61.3
2022-09-03T10:17:03.877Z,60.8
2022-09-03T10:18:05.930Z,60.8
2022-09-03T10:19:03.991Z,59.2
2022-09-03T10:20:05.975Z,59.2
2022-09-03T10:21:03.626Z,60.0
2022-09-03T10:22:04.658Z,60.0
2022-09-03T10:23:04.938Z,59.6
2022-09-03T10:24:10.085Z,59.6
2022-09-03T10:25:02.122Z,59.0
2022-09-03T10:26:00.154Z,59.0
2022-09-03T10:27:00.185Z,60.4
2022-09-03T10:28:00.505Z,60.4
2022-09-03T10:29:01.116Z,59.8
2022-09-03T10:30:00.190Z,59.8
2022-09-03T10:31:00.203Z,60.0
2022-09-03T10:32:03.474Z,60.0
2022-09-03T10:33:07.878Z,59.3
2022-09-03T10:34:10.089Z,59.3
2022-09-03T10:35:03.388Z,58.2
2022-09-03T10:36:06.206Z,58.2
2022-09-03T10:37:08.229Z,58.8
2022-09-03T10:38:10.085Z,58.8
2022-09-03T10:39:10.091Z,59.7
2022-09-03T10:40:10.169Z,59.7
2022-09-03T10:41:08.409Z,57.9
2022-09-03T10:42:10.089Z,57.9
2022-09-03T10:43:10.087Z,59.6
2022-09-03T10:44:10.018Z,59.6
2022-09-03T10:45:10.095Z,58.2
2022-09-03T10:46:05.054Z,58.2
2022-09-03T10:47:10.083Z,57.7
2022-09-03T10:48:10.090Z,57.7
2022-09-03T10:49:09.577Z,58.1
2022-09-03T10:50:08.270Z,58.1
2022-09-03T10:51:03.407Z,58.0
2022-09-03T10:52:10.087Z,58.0
2022-09-03T10:53:01.137Z,58.3
2022-09-03T10:54:10.088Z,58.3
2022-09-03T10:55:09.390Z,58.1
2022-09-03T10:56:04.289Z,58.1
2022-09-03T10:57:10.084Z,56.8
2022-09-03T10:58:10.086Z,56.8
2022-09-03T10:59:00.132Z,56.7
2022-09-03T11:00:01.139Z,56.7
2022-09-03T11:01:06.109Z,57.5
2022-09-03T11:02:01.139Z,57.5
2022-09-03T11:03:10.093Z,56.2
2022-09-03T11:04:10.092Z,56.2
2022-09-03T11:05:04.775Z,57.3
2022-09-03T11:06:04.203Z,57.3
2022-09-03T11:07:02.877Z,56.9
2022-09-03T11:08:01.146Z,56.9
2022-09-03T11:09:10.090Z,56.8
2022-09-03T11:10:10.107Z,56.8
2022-09-03T11:11:09.159Z,56.7
2022-09-03T11:12:03.924Z,56.7
2022-09-03T11:13:01.139Z,56.4
2022-09-03T11:14:06.211Z,56.4
2022-09-03T11:15:02.752Z,55.4
2022-09-03T11:16:03.851Z,55.4
2022-09-03T11:17:04.504Z,56.4
2022-09-03T11:18:03.382Z,56.4
2022-09-03T11:19:03.160Z,54.5
2022-09-03T11:20:10.096Z,54.5
2022-09-03T11:21:03.225Z,55.4
2022-09-03T11:22:00.730Z,55.4
2022-09-03T11:23:02.007Z,54.7
2022-09-03T11:24:06.001Z,54.7
2022-09-03T11:25:01.595Z,55.0
2022-09-03T11:26:01.812Z,55.0
2022-09-03T11:27:00.144Z,54.7
2022-09-03T11:28:00.141Z,54.7
2022-09-03T11:29:08.068Z,53.9
2022-09-03T11:30:00.164Z,53.9
2022-09-03T11:31:10.148Z,54.5
2022-09-03T11:32:02.791Z,54.5
2022-09-03T11:33:06.002Z,53.5
2022-09-03T11:34:05.499Z,53.5
2022-09-03T11:35:00.165Z,53.2
2022-09-03T11:36:00.690Z,53.2
2022-09-03T11:37:04.141Z,54.6
2022-09-03T11:38:04.716Z,54.6
2022-09-03T11:39:00.174Z,53.0
2022-09-03T11:40:06.156Z,53.0
2022-09-03T11:41:03.676Z,53.2
2022-09-03T11:42:01.506Z,53.2
2022-09-03T11:43:10.091Z,52.8
2022-09-03T11:44:10.092Z,52.8
2022-09-03T11:45:10.095Z,53.1
2022-09-03T11:46:10.193Z,53.1
2022-09-03T11:47:00.150Z,52.9
2022-09-03T11:48:00.232Z,52.9
2022-09-03T11:49:10.096Z,53.8
2022-09-03T11:50:05.630Z,53.8
2022-09-03T11:51:00.169Z,52.2
2022-09-03T11:52:01.699Z,52.2
2022-09-03T11:53:08.847Z,53.1
2022-09-03T11:54:01.141Z,53.1
2022-09-03T11:55:00.157Z,52.4
2022-09-03T11:56:07.510Z,52.4
2022-09-03T11:57:10.087Z,53.1
2022-09-03T11:58:10.101Z,53.1
2022-09-03T11:59:02.219Z,51.7
2022-09-03T12:00:09.396Z,51.7
2022-09-03T12:01:01.638Z,52.8
2022-09-03T12:02:03.413Z,52.8
2022-09-03T12:03:01.891Z,53.4
2022-09-03T12:04:01.502Z,53.4
2022-09-03T12:05:10.102Z,52.9
2022-09-03T12:06:00.130Z,52.9
2022-09-03T12:07:01.150Z,53.3
2022-09-03T12:08:10.089Z,53.3
2022-09-03T12:09:06.913Z,53.0
2022-09-03T12:10:06.523Z,53.0
2022-09-03T12:11:10.089Z,52.9
2022-09-03T12:12:10.092Z,52.9
2022-09-03T12:13:09.327Z,53.2
2022-09-03T12:14:13.007Z,53.2
2022-09-03T12:15:07.272Z,52.2
2022-09-03T12:16:10.227Z,52.2
2022-09-03T12:17:10.093Z,53.0
2022-09-03T12:18:02.987Z,53.0
2022-09-03T12:19:03.300Z,52.5
2022-09-03T12:20:00.208Z,52.5
2022-09-03T12:21:01.749Z,52.5
2022-09-03T12:22:00.158Z,52.5
2022-09-03T12:23:00.209Z,51.9
2022-09-03T12:24:00.809Z,51.9
2022-09-03T12:25:06.613Z,51.0
2022-09-03T12:26:02.749Z,51.0
2022-09-03T12:27:00.780Z,50.6
2022-09-03T12:28:00.954Z,50.6
2022-09-03T12:29:00.321Z,52.2
2022-09-03T12:31:10.158Z,51.1
2022-09-03T12:32:08.959Z,51.1
2022-09-03T12:33:05.333Z,51.5
2022-09-03T12:34:01.705Z,51.5
2022-09-03T12:36:00.889Z,51.3
2022-09-03T12:37:01.605Z,51.5
2022-09-03T12:38:09.283Z,51.5
2022-09-03T12:39:12.025Z,50.4
2022-09-03T12:40:08.599Z,50.4
2022-09-03T12:41:27.554Z,51.7
2022-09-03T12:42:02.217Z,51.7
2022-09-03T12:43:37.958Z,51.1
2022-09-03T12:44:00.164Z,51.1
2022-09-03T12:45:08.072Z,52.0
2022-09-03T12:46:11.979Z,52.0
2022-09-03T12:49:31.051Z,50.6
2022-09-03T12:51:47.985Z,49.6
2022-09-03T12:52:05.843Z,49.6
2022-09-03T12:53:01.802Z,50.0
2022-09-03T12:54:01.475Z,50.0
2022-09-03T13:12:00.349Z,50.1
2022-09-03T13:13:01.824Z,50.1
2022-09-03T13:14:00.130Z,48.3
2022-09-03T13:15:09.686Z,48.3
2022-09-03T13:16:10.095Z,48.7
2022-09-03T13:17:01.278Z,48.7
2022-09-03T13:18:01.145Z,48.0
2022-09-03T13:19:08.613Z,48.0
2022-09-03T13:20:10.097Z,49.7
2022-09-03T13:21:06.242Z,49.7
2022-09-03T13:22:10.095Z,49.2
2022-09-03T13:23:08.732Z,49.2
2022-09-03T13:24:10.089Z,47.1
2022-09-03T13:25:10.098Z,47.1
2022-09-03T13:26:05.801Z,46.4
2022-09-03T13:27:10.089Z,46.4
2022-09-03T13:28:10.088Z,46.4
2022-09-03T13:29:10.087Z,46.4
2022-09-03T13:30:03.802Z,48.3
2022-09-03T13:31:10.174Z,48.3
2022-09-03T13:32:08.577Z,48.4
2022-09-03T13:33:05.314Z,48.4
2022-09-03T13:34:05.281Z,46.4
2022-09-03T13:35:05.987Z,46.4
2022-09-03T13:36:03.366Z,47.4
2022-09-03T13:37:10.083Z,47.4
2022-09-03T13:38:10.099Z,46.6
2022-09-03T13:39:02.708Z,46.6
2022-09-03T13:40:08.975Z,44.9
2022-09-03T13:41:00.130Z,44.9
2022-09-03T13:42:04.906Z,47.3